Flight Track Log - Related Links

Times and Time Zones

All times are in EDT time to prevent confusion due to time zone crossing. See the SKW5500 flight status page for this flight to view local times or setup timezone preferences in your user account.

Time Position Orientation Groundspeed Altitude Reporting Facility
EDT Latitude Longitude Course Direction KTS MPH feet Rate Location/Type
Fri 06:29:14 PM 39.2742 -106.9681 286° West 245 282 12,600  Level Denver Center
Fri 06:30:16 PM 39.3417 -106.9714 358° North 282 325 15,700 2,468 Climbing Denver Center
Fri 06:31:18 PM 39.3453 -106.8644 87° East 309 356 17,700 1,839 Climbing Denver Center
Fri 06:32:00 PM 39.3681 -106.5570 104° East  Level FlightAware Approximate
Fri 06:32:20 PM 39.3478 -106.7394 88° East 346 398 19,500  Level Denver Center
Fri 06:33:00 PM 39.3371 -106.4408 123° Southeast  Level FlightAware Approximate
Fri 06:33:22 PM 39.3500 -106.5686 89° East 392 451 21,000  Level Denver Center
Fri 06:34:24 PM 39.3531 -106.4231 88° East 418 481 21,000  Level Denver Center
Fri 06:35:26 PM 39.3603 -106.2794 86° East 418 481 21,000  Level Denver Center
Fri 06:36:28 PM 39.3689 -106.1083 86° East 419 482 21,000 -97 Level Denver Center
Fri 06:37:30 PM 39.3756 -105.9597 87° East 413 475 20,800 -581 Descending Denver Center
Fri 06:38:32 PM 39.3811 -105.8081 87° East 418 481 19,800 -919 Descending Denver Center
Fri 06:39:34 PM 39.3872 -105.6767 87° East 364 419 18,900 -823 Descending Denver Center
Fri 06:40:36 PM 39.3911 -105.5506 88° East 350 403 18,100 -823 Descending Denver Center
Fri 06:41:38 PM 39.3992 -105.4147 86° East 351 404 17,200 -1,210 Descending Denver Center
Fri 06:42:40 PM 39.4042 -105.2839 87° East 341 392 15,600 -1,610 Descending Denver Center
Fri 06:43:41 PM 39.4100 -105.1656 86° East 334 384 13,900 -1,268 Descending Denver Center
Fri 06:44:43 PM 39.4150 -105.0561 87° East 312 359 13,000 -435 Descending Denver Center
Fri 06:45:45 PM 39.4389 -104.9539 73° East 307 353 13,000 -387 Level Denver Center
Fri 06:46:47 PM 39.4897 -104.8469 58° Northeast 347 399 12,200 -1,210 Descending Denver Center
Fri 06:47:49 PM 39.5414 -104.7311 60° Northeast 344 396 10,500 -1,065 Descending Denver Center
Fri 06:48:51 PM 39.6067 -104.6725 35° Northeast 286 329 10,000 -919 Descending Denver Center
Fri 06:49:53 PM 39.6803 -104.6625 North 255 293 8,600 -1,355 Descending Denver Center

Login

Don't have an account? Register now (free) for customized features, flight alerts, and more!